Time;durP1;ratioP1;P1;durP2;ratioP2;P2;SDS_P1;SDS_P2;PMS_P1;PMS_P2;Temp;Humidity;BMP_temperature;BMP_pressure;BME280_temperature;BME280_humidity;BME280_pressure;Samples;Min_cycle;Max_cycle;Signal;HPM_P1;HPM_P2
2023/02/21 02:14:38;;;;;;;36.97;14.55;;;8.70;99.90;;;;;;5168258;23;20178;-93
2023/02/21 02:16:52;;;;;;;38.83;14.18;;;8.80;99.90;;;;;;5144673;23;20185;-93
2023/02/21 02:19:04;;;;;;;56.70;16.50;;;8.80;99.90;;;;;;5144116;23;20155;-92
2023/02/21 02:21:23;;;;;;;31.20;16.98;;;8.70;99.90;;;;;;5144369;23;20321;-93
2023/02/21 02:23:42;;;;;;;53.70;15.77;;;8.60;99.90;;;;;;5145442;23;20179;-93
2023/02/21 02:26:26;;;;;;;59.28;15.40;;;8.70;99.90;;;;;;5143899;23;20155;-90
2023/02/21 02:28:53;;;;;;;57.58;15.93;;;8.80;99.90;;;;;;5145572;23;20219;-89
2023/02/21 02:31:15;;;;;;;49.80;15.40;;;8.80;99.90;;;;;;5143563;23;20156;-92
2023/02/21 02:33:54;;;;;;;39.67;14.73;;;8.70;99.90;;;;;;5146040;23;20151;-92
2023/02/21 02:36:10;;;;;;;39.75;16.45;;;8.70;99.90;;;;;;5172534;22;20248;-92
2023/02/21 02:38:44;;;;;;;70.95;17.17;;;8.70;99.90;;;;;;5148019;23;20151;-90
2023/02/21 02:41:02;;;;;;;40.67;16.75;;;8.90;99.90;;;;;;5145800;23;20159;-92
2023/02/21 02:43:32;;;;;;;45.25;16.90;;;8.80;99.90;;;;;;5145420;23;20665;-93
2023/02/21 02:45:39;;;;;;;40.85;17.50;;;8.90;99.90;;;;;;5171186;23;20180;-92
2023/02/21 02:47:43;;;;;;;40.45;16.65;;;8.80;99.90;;;;;;5146070;23;20170;-93
2023/02/21 02:49:45;;;;;;;37.40;17.55;;;8.70;99.90;;;;;;5146205;23;20258;-92
2023/02/21 02:51:46;;;;;;;67.22;15.60;;;8.70;99.90;;;;;;5145183;23;20611;-92
2023/02/21 02:53:47;;;;;;;66.15;16.80;;;8.80;99.90;;;;;;5174309;22;20618;-90
2023/02/21 02:56:09;;;;;;;53.85;17.00;;;8.70;99.90;;;;;;5146561;23;20210;-90
2023/02/21 02:58:11;;;;;;;48.55;15.85;;;8.80;99.90;;;;;;5171925;23;20142;-90
2023/02/21 03:00:12;;;;;;;42.58;16.38;;;8.90;99.90;;;;;;5173459;22;20155;-92
2023/02/21 03:02:56;;;;;;;36.67;15.50;;;9.00;99.90;;;;;;5146983;23;20487;-92
2023/02/21 03:05:38;;;;;;;34.05;15.02;;;9.00;99.90;;;;;;5128811;23;20152;-90
2023/02/21 03:08:21;;;;;;;30.58;15.25;;;9.10;99.90;;;;;;5107652;23;20234;-90
2023/02/21 03:10:21;;;;;;;54.40;15.07;;;9.00;99.90;;;;;;5139243;23;20211;-93
2023/02/21 03:13:01;;;;;;;32.50;15.32;;;9.10;99.90;;;;;;5145892;23;20159;-93
2023/02/21 03:15:09;;;;;;;26.95;14.85;;;9.10;99.90;;;;;;5047204;23;20182;-92
2023/02/21 03:17:13;;;;;;;30.83;14.10;;;8.90;99.90;;;;;;5145337;23;20151;-90
2023/02/21 03:19:25;;;;;;;37.75;15.68;;;8.70;99.90;;;;;;5146452;23;20167;-91
2023/02/21 03:21:33;;;;;;;47.97;15.50;;;8.70;99.90;;;;;;5171907;22;20157;-92
2023/02/21 03:23:36;;;;;;;33.42;16.20;;;8.80;99.90;;;;;;5171342;23;20146;-91
2023/02/21 03:25:38;;;;;;;32.30;14.82;;;8.90;99.90;;;;;;5170190;23;20146;-90
2023/02/21 03:27:40;;;;;;;36.15;16.10;;;9.00;99.90;;;;;;5172051;22;20557;-92
2023/02/21 03:30:01;;;;;;;36.13;15.30;;;8.90;99.90;;;;;;5170637;23;20258;-93
2023/02/21 03:32:38;;;;;;;48.85;15.25;;;8.70;99.90;;;;;;5171576;23;20226;-90
2023/02/21 03:34:41;;;;;;;31.25;14.75;;;8.90;99.90;;;;;;5149002;23;20191;-91
2023/02/21 03:36:45;;;;;;;40.30;15.60;;;9.00;99.90;;;;;;5147061;23;20147;-91
2023/02/21 03:38:47;;;;;;;34.42;15.77;;;9.00;99.90;;;;;;5146531;23;20574;-92
2023/02/21 03:40:48;;;;;;;42.22;15.50;;;9.00;99.90;;;;;;5169789;23;20155;-90
2023/02/21 03:42:51;;;;;;;36.00;15.77;;;9.00;99.90;;;;;;5145578;23;20160;-91
2023/02/21 03:44:56;;;;;;;32.85;15.18;;;8.90;99.90;;;;;;5196215;22;20164;-92
2023/02/21 03:46:57;;;;;;;29.30;14.30;;;8.80;99.90;;;;;;5196901;22;20154;-93
2023/02/21 03:48:58;;;;;;;27.15;14.30;;;8.60;99.90;;;;;;5172419;22;20236;-92
2023/02/21 03:51:02;;;;;;;40.45;14.75;;;8.80;99.90;;;;;;5149679;23;20143;-91
2023/02/21 03:53:09;;;;;;;34.75;14.23;;;8.70;99.90;;;;;;5172774;23;20151;-90
2023/02/21 03:55:11;;;;;;;29.20;14.40;;;8.80;99.90;;;;;;5146554;23;20183;-93
2023/02/21 03:57:12;;;;;;;29.33;14.20;;;8.70;99.90;;;;;;5170623;23;20605;-90
2023/02/21 03:59:15;;;;;;;26.83;14.15;;;8.50;99.90;;;;;;5171353;22;20642;-91
2023/02/21 04:01:17;;;;;;;24.88;13.30;;;8.50;99.90;;;;;;5171112;23;20226;-91
2023/02/21 04:03:20;;;;;;;21.60;12.20;;;8.30;99.90;;;;;;5171806;22;20165;-90
2023/02/21 04:05:28;;;;;;;26.58;11.88;;;8.30;99.90;;;;;;5172527;23;20154;-90
2023/02/21 04:07:29;;;;;;;22.55;11.75;;;8.40;99.90;;;;;;5145356;22;20607;-92
2023/02/21 15:04:13;;;;;;;34.53;16.92;;;10.90;99.90;;;;;;4972544;23;20237;-94
2023/02/21 15:07:22;;;;;;;;;;;;;;;;;;;;;
2023/02/21 15:10:13;;;;;;;;;;;;;;;;;;;;;
2023/02/21 15:16:47;;;;;;;;;;;;;;;;;;;;;
2023/02/21 15:19:51;;;;;;;;;;;;;;;;;;;;;
2023/02/21 15:22:49;;;;;;;;;;;;;;;;;;;;;
2023/02/21 15:36:06;;;;;;;;;;;;;;;;;;;;;
2023/02/21 15:39:09;;;;;;;;;;;;;;;;;;;;;
2023/02/21 15:41:44;;;;;;;30.38;14.10;;;10.40;99.90;;;;;;5047969;23;20253;-94
2023/02/21 15:47:22;;;;;;;36.00;16.75;;;9.90;99.90;;;;;;5108673;23;20171;-94
2023/02/21 15:49:59;;;;;;;30.55;15.40;;;9.90;99.90;;;;;;5050583;23;20172;-94
2023/02/21 15:53:22;;;;;;;;;;;;;;;;;;;;;
2023/02/21 15:55:39;;;;;;;27.70;14.02;;;10.20;99.90;;;;;;5047263;23;20193;-93
2023/02/21 16:01:29;;;;;;;31.15;14.68;;;10.40;99.90;;;;;;5135026;23;20167;-94
2023/02/21 16:03:46;;;;;;;28.15;14.63;;;10.60;99.90;;;;;;5140608;23;20140;-93
2023/02/21 16:06:32;;;;;;;;;;;;;;;;;;;;;
2023/02/21 16:08:57;;;;;;;30.60;13.90;;;10.00;99.90;;;;;;5140723;23;20156;-92
2023/02/21 16:11:19;;;;;;;28.15;13.90;;;9.60;99.90;;;;;;5122388;23;20179;-93
2023/02/21 16:13:57;;;;;;;;;;;;;;;;;;;;;
2023/02/21 16:16:44;;;;;;;27.55;14.13;;;10.00;99.90;;;;;;5120435;23;20201;-94
2023/02/21 16:18:56;;;;;;;32.00;14.00;;;9.70;99.90;;;;;;5082269;23;20172;-91
2023/02/21 16:21:02;;;;;;;31.55;15.02;;;9.90;99.90;;;;;;5119427;23;20496;-93
2023/02/21 16:23:40;;;;;;;29.27;14.40;;;9.70;99.90;;;;;;5119062;23;20152;-91
2023/02/21 16:26:01;;;;;;;27.95;13.77;;;9.60;99.90;;;;;;5118751;23;20234;-92
2023/02/21 16:28:11;;;;;;;27.55;13.95;;;9.90;99.90;;;;;;5118485;23;20163;-91
2023/02/21 16:30:24;;;;;;;28.20;13.70;;;9.90;99.90;;;;;;5118788;23;20163;-91
2023/02/21 16:32:24;;;;;;;28.73;13.82;;;10.10;99.90;;;;;;5119837;23;20151;-91
2023/02/21 16:35:02;;;;;;;27.30;16.05;;;9.90;99.90;;;;;;5145668;23;20162;-93
2023/02/21 16:38:03;;;;;;;;;;;;;;;;;;;;;
2023/02/21 16:40:23;;;;;;;23.50;12.40;;;9.80;99.90;;;;;;5131254;23;20183;-93
2023/02/21 16:43:01;;;;;;;;;;;;;;;;;;;;;
2023/02/21 16:45:50;;;;;;;27.58;13.00;;;9.90;99.90;;;;;;5145921;23;20139;-93
2023/02/21 16:48:51;;;;;;;25.95;12.45;;;9.80;99.90;;;;;;5090133;23;20236;-94
2023/02/21 16:51:56;;;;;;;;;;;;;;;;;;;;;
2023/02/21 16:57:45;;;;;;;23.20;11.98;;;9.20;99.90;;;;;;5119139;23;20172;-94
2023/02/21 17:00:44;;;;;;;;;;;;;;;;;;;;;
2023/02/21 17:13:43;;;;;;;;;;;;;;;;;;;;;
2023/02/21 17:16:44;;;;;;;;;;;;;;;;;;;;;
2023/02/21 17:29:32;;;;;;;28.42;14.43;;;9.10;99.90;;;;;;5118677;23;20194;-91
2023/02/21 17:31:33;;;;;;;27.02;14.27;;;9.00;99.90;;;;;;5093973;23;20492;-91
2023/02/21 17:33:34;;;;;;;25.25;13.13;;;9.10;99.90;;;;;;5118442;23;20152;-91
2023/02/21 17:35:35;;;;;;;27.10;14.93;;;9.20;99.90;;;;;;5069515;23;20189;-91
2023/02/21 17:37:36;;;;;;;28.27;15.80;;;9.70;99.90;;;;;;5118944;23;20226;-90
2023/02/21 17:39:37;;;;;;;31.52;15.88;;;10.10;99.90;;;;;;5094041;23;20536;-90
2023/02/21 17:41:47;;;;;;;30.42;16.63;;;9.60;99.90;;;;;;5094426;23;20152;-91
2023/02/21 17:43:48;;;;;;;29.88;16.45;;;9.30;99.90;;;;;;5118185;23;20188;-91
2023/02/21 17:45:49;;;;;;;33.72;15.38;;;9.20;99.90;;;;;;5093656;23;20261;-90
2023/02/21 17:47:50;;;;;;;35.05;15.50;;;9.00;99.90;;;;;;5094004;23;20149;-90
2023/02/21 17:49:53;;;;;;;30.10;15.43;;;9.20;99.90;;;;;;5093876;23;20227;-91
2023/02/21 17:51:54;;;;;;;33.63;16.17;;;9.00;99.90;;;;;;5118478;23;20153;-91
2023/02/21 17:53:55;;;;;;;29.02;15.90;;;9.10;99.90;;;;;;5093858;23;20180;-90
2023/02/21 17:55:58;;;;;;;28.45;15.38;;;9.00;99.90;;;;;;5093560;23;20188;-90
2023/02/21 17:58:00;;;;;;;30.98;15.88;;;8.70;99.90;;;;;;5069562;23;20158;-91
2023/02/21 18:00:03;;;;;;;30.85;15.60;;;8.60;99.90;;;;;;5069417;23;20178;-90
2023/02/21 18:02:09;;;;;;;28.20;14.50;;;8.40;99.90;;;;;;5094155;23;20243;-90
2023/02/21 18:04:12;;;;;;;30.10;15.93;;;8.20;99.90;;;;;;5118245;23;20194;-93
2023/02/21 18:06:14;;;;;;;29.10;15.55;;;8.00;99.90;;;;;;5093927;23;20149;-91
2023/02/21 18:08:16;;;;;;;30.50;16.88;;;7.90;99.90;;;;;;5093923;23;20244;-91
2023/02/21 18:10:20;;;;;;;29.65;16.73;;;7.90;99.90;;;;;;5118465;23;20176;-91
2023/02/21 18:12:20;;;;;;;33.13;16.63;;;7.90;99.90;;;;;;5093699;23;20153;-90
2023/02/21 18:14:24;;;;;;;34.33;17.67;;;7.90;99.90;;;;;;5093789;23;20180;-90
2023/02/21 18:16:25;;;;;;;32.83;18.93;;;7.90;99.90;;;;;;5117566;23;20188;-91
2023/02/21 18:18:25;;;;;;;37.47;18.45;;;7.80;99.90;;;;;;5069016;23;20184;-91
2023/02/21 18:20:26;;;;;;;39.78;18.98;;;8.00;99.90;;;;;;5093359;23;20176;-92
2023/02/21 18:22:27;;;;;;;35.83;18.67;;;8.00;99.90;;;;;;5069104;23;20173;-90
2023/02/21 18:24:28;;;;;;;39.65;19.95;;;7.90;99.90;;;;;;5069198;23;20568;-91
2023/02/21 18:26:28;;;;;;;36.10;17.92;;;7.90;99.90;;;;;;5068793;23;20616;-91
2023/02/21 18:28:30;;;;;;;34.45;18.27;;;8.00;99.90;;;;;;5069159;23;20237;-91
2023/02/21 18:30:30;;;;;;;32.97;17.52;;;8.00;99.90;;;;;;5069279;23;20581;-92
2023/02/21 18:32:31;;;;;;;34.92;16.33;;;8.20;99.90;;;;;;5093669;23;20153;-92
2023/02/21 18:34:32;;;;;;;29.65;16.42;;;8.30;99.90;;;;;;5094089;23;20165;-90
2023/02/21 18:36:33;;;;;;;29.77;16.15;;;8.20;99.90;;;;;;5096143;23;20251;-94
2023/02/21 18:38:34;;;;;;;33.45;17.67;;;8.10;99.90;;;;;;5099055;23;20153;-92
2023/02/21 18:40:43;;;;;;;34.15;17.05;;;8.20;99.90;;;;;;5091340;23;20181;-90
2023/02/21 18:42:44;;;;;;;33.43;17.23;;;8.20;99.90;;;;;;5080176;23;20149;-90
2023/02/21 18:44:45;;;;;;;33.83;17.50;;;8.20;99.90;;;;;;5094409;23;20153;-91
2023/02/21 18:46:52;;;;;;;31.83;17.33;;;8.20;99.90;;;;;;5093584;23;20160;-91
2023/02/21 18:48:53;;;;;;;34.15;18.90;;;8.10;99.90;;;;;;5118350;23;20160;-91
2023/02/21 18:50:56;;;;;;;40.70;19.45;;;8.00;99.90;;;;;;5069253;23;20314;-91
2023/02/21 18:52:57;;;;;;;31.40;17.38;;;8.00;99.90;;;;;;5069183;23;20176;-91
2023/02/21 18:55:02;;;;;;;34.70;17.10;;;8.00;99.90;;;;;;5093463;23;20188;-90
2023/02/21 18:57:03;;;;;;;31.90;16.90;;;8.00;99.90;;;;;;5069338;23;20215;-91
2023/02/21 18:59:04;;;;;;;36.33;19.35;;;7.90;99.90;;;;;;5093123;23;20153;-90
2023/02/21 19:01:06;;;;;;;37.00;19.03;;;7.90;99.90;;;;;;5068738;23;20167;-91
2023/02/21 19:03:07;;;;;;;36.53;18.57;;;7.80;99.90;;;;;;5094204;23;20196;-91
2023/02/21 19:05:15;;;;;;;35.10;17.88;;;7.70;99.90;;;;;;5093768;23;20160;-90
2023/02/21 19:07:16;;;;;;;35.72;18.05;;;7.70;99.90;;;;;;5118269;23;20148;-91
2023/02/21 19:09:16;;;;;;;32.70;17.55;;;7.80;99.90;;;;;;5069131;23;20727;-90
2023/02/21 19:11:17;;;;;;;33.07;18.50;;;7.70;99.90;;;;;;5142915;23;20158;-91
2023/02/21 19:13:18;;;;;;;41.90;21.38;;;7.80;99.90;;;;;;5093665;23;20160;-91
2023/02/21 19:15:20;;;;;;;51.70;27.63;;;8.00;99.90;;;;;;5095243;23;20199;-91
2023/02/21 19:17:20;;;;;;;49.97;26.90;;;8.30;99.90;;;;;;5070787;23;20248;-92
2023/02/21 19:19:22;;;;;;;47.10;24.20;;;8.50;99.90;;;;;;5095493;23;20177;-92
2023/02/21 19:21:23;;;;;;;46.07;24.20;;;8.10;99.90;;;;;;5094980;23;20215;-91
2023/02/21 19:23:26;;;;;;;47.17;24.50;;;7.80;99.90;;;;;;5119676;23;20202;-91
2023/02/21 19:25:29;;;;;;;56.70;30.43;;;7.50;99.90;;;;;;5096588;23;20236;-90
2023/02/21 19:27:30;;;;;;;51.47;27.87;;;7.40;99.90;;;;;;5123301;23;20156;-91
2023/02/21 19:29:31;;;;;;;51.77;28.03;;;7.30;99.90;;;;;;5118964;23;20194;-91
2023/02/21 19:31:32;;;;;;;49.17;27.23;;;7.30;99.90;;;;;;5094949;23;20157;-91
2023/02/21 19:33:33;;;;;;;42.93;23.33;;;7.60;99.90;;;;;;5070645;23;20229;-92
2023/02/21 19:35:34;;;;;;;45.60;24.07;;;7.60;99.90;;;;;;5074301;23;20236;-92
2023/02/21 19:37:36;;;;;;;53.83;26.50;;;7.50;99.90;;;;;;5120024;23;20159;-91
2023/02/21 19:39:37;;;;;;;62.07;30.80;;;7.30;99.90;;;;;;5094861;23;20165;-91
2023/02/21 19:41:39;;;;;;;57.70;31.33;;;7.20;99.90;;;;;;5070699;23;20298;-91
2023/02/21 19:43:40;;;;;;;48.27;26.23;;;7.10;99.90;;;;;;5070286;23;20153;-91
2023/02/21 19:45:43;;;;;;;50.43;27.27;;;7.10;99.90;;;;;;5094706;23;20153;-92
2023/02/21 19:47:45;;;;;;;48.83;26.10;;;7.00;99.90;;;;;;5094852;23;20152;-92
2023/02/21 19:49:46;;;;;;;50.43;25.57;;;7.10;99.90;;;;;;5094759;23;20173;-91
2023/02/21 19:51:49;;;;;;;49.20;25.67;;;7.10;99.90;;;;;;5070518;23;20157;-91
2023/02/21 19:53:50;;;;;;;47.17;23.43;;;7.10;99.90;;;;;;5094766;23;20149;-94
2023/02/21 19:55:51;;;;;;;47.00;25.47;;;7.10;99.90;;;;;;5071252;23;20676;-92
2023/02/21 19:57:52;;;;;;;46.37;25.10;;;7.00;99.90;;;;;;5094661;23;20187;-92
2023/02/21 19:59:52;;;;;;;50.90;25.70;;;7.00;99.90;;;;;;5094862;23;20179;-92
2023/02/21 20:01:53;;;;;;;46.17;22.60;;;7.00;99.90;;;;;;5070621;23;20217;-91
2023/02/21 20:03:54;;;;;;;50.07;24.60;;;7.00;99.90;;;;;;5070376;23;20165;-90
2023/02/21 20:05:55;;;;;;;48.87;23.97;;;6.90;99.90;;;;;;5094883;23;20145;-91
2023/02/21 20:07:57;;;;;;;46.83;23.93;;;6.80;99.90;;;;;;5094639;23;20149;-95
2023/02/21 20:09:58;;;;;;;48.93;23.17;;;6.90;99.90;;;;;;5094717;23;20252;-91
2023/02/21 20:11:59;;;;;;;54.60;23.80;;;7.10;99.90;;;;;;5094804;23;20153;-92
2023/02/21 20:13:59;;;;;;;50.23;25.40;;;7.10;99.90;;;;;;5069764;23;20146;-91
2023/02/21 20:16:00;;;;;;;56.50;30.20;;;7.10;99.90;;;;;;5069470;23;20196;-90
2023/02/21 20:18:02;;;;;;;55.97;29.80;;;7.60;99.90;;;;;;5069870;23;20617;-94
2023/02/21 20:20:06;;;;;;;59.67;30.40;;;7.80;99.90;;;;;;5094315;23;20173;-91
2023/02/21 20:22:06;;;;;;;80.33;36.30;;;8.10;99.90;;;;;;5094407;23;20152;-91
2023/02/21 20:24:09;;;;;;;82.97;37.80;;;8.50;99.90;;;;;;5094332;23;20268;-91
2023/02/21 20:26:11;;;;;;;299.73;43.67;;;8.50;99.90;;;;;;5094311;23;20200;-91
2023/02/21 20:28:12;;;;;;;464.70;46.47;;;8.70;99.90;;;;;;5119002;23;20160;-91
2023/02/21 20:30:14;;;;;;;694.17;53.57;;;8.80;99.90;;;;;;5070263;23;20212;-92
2023/02/21 20:32:17;;;;;;;624.60;47.23;;;8.80;99.90;;;;;;5119109;23;20160;-90
2023/02/21 20:34:17;;;;;;;631.97;48.27;;;8.70;99.90;;;;;;5094260;23;20212;-91
2023/02/21 20:36:29;;;;;;;629.00;46.73;;;8.50;99.90;;;;;;5094328;23;20193;-90
2023/02/21 20:38:30;;;;;;;519.53;41.00;;;8.30;99.90;;;;;;5094428;23;20149;-91
2023/02/21 20:40:31;;;;;;;501.70;44.17;;;8.10;99.90;;;;;;5119083;23;20172;-91
2023/02/21 20:42:32;;;;;;;489.57;41.80;;;7.90;99.90;;;;;;5094387;23;20153;-91
2023/02/21 20:44:35;;;;;;;547.80;42.50;;;7.70;99.90;;;;;;5094023;23;20603;-91
2023/02/21 20:46:37;;;;;;;506.33;39.73;;;7.50;99.90;;;;;;5118910;23;20231;-92
2023/02/21 20:48:37;;;;;;;542.33;40.97;;;7.40;99.90;;;;;;5069662;23;20181;-92
2023/02/21 20:50:40;;;;;;;402.13;37.93;;;7.30;99.90;;;;;;5069229;23;20181;-91
2023/02/21 20:52:41;;;;;;;382.53;38.20;;;7.30;99.90;;;;;;5094074;23;20148;-90
2023/02/21 20:54:42;;;;;;;525.60;42.37;;;7.40;99.90;;;;;;5069536;23;20165;-92
2023/02/21 20:56:43;;;;;;;601.20;46.07;;;7.30;99.90;;;;;;5094010;23;20217;-91
2023/02/21 20:58:44;;;;;;;479.93;42.57;;;7.30;99.90;;;;;;5093987;23;20156;-92
2023/02/21 21:00:46;;;;;;;612.10;49.57;;;7.20;99.90;;;;;;5069526;23;20178;-92
2023/02/21 21:02:48;;;;;;;444.57;45.70;;;7.10;99.90;;;;;;5069540;23;20152;-91
2023/02/21 21:04:48;;;;;;;519.63;53.33;;;6.90;99.90;;;;;;5094012;23;20165;-90
2023/02/21 21:06:49;;;;;;;547.50;55.83;;;6.60;99.90;;;;;;5069591;23;20703;-91
2023/02/21 21:08:50;;;;;;;611.60;49.83;;;6.60;99.90;;;;;;5069672;23;20201;-93
2023/02/21 21:10:51;;;;;;;467.53;40.83;;;6.50;99.90;;;;;;5093910;23;20628;-91
2023/02/21 21:12:52;;;;;;;593.83;39.93;;;6.60;99.90;;;;;;5095673;23;20144;-91
2023/02/21 21:14:52;;;;;;;634.37;41.57;;;6.80;99.90;;;;;;5096322;23;20299;-91
2023/02/21 21:16:55;;;;;;;527.30;38.80;;;6.80;99.90;;;;;;5140357;23;20183;-92
2023/02/21 21:18:56;;;;;;;626.70;38.33;;;7.00;99.90;;;;;;5085918;23;20192;-90
2023/02/21 21:20:57;;;;;;;557.57;39.30;;;7.00;99.90;;;;;;5093576;23;20642;-92
2023/02/21 21:22:57;;;;;;;462.03;36.50;;;7.00;99.90;;;;;;5093952;23;20204;-91
2023/02/21 21:24:58;;;;;;;429.90;38.20;;;7.00;99.90;;;;;;5094110;23;20184;-92
2023/02/21 21:27:04;;;;;;;409.70;36.07;;;7.00;99.90;;;;;;5118925;23;20207;-91
2023/02/21 21:29:07;;;;;;;409.67;38.93;;;7.00;99.90;;;;;;5094112;23;20165;-91
2023/02/21 21:31:08;;;;;;;318.53;35.90;;;7.00;99.90;;;;;;5093901;23;20155;-92
2023/02/21 21:33:10;;;;;;;323.80;38.13;;;6.90;99.90;;;;;;5094273;23;20149;-91
2023/02/21 21:35:13;;;;;;;216.40;36.43;;;7.00;99.90;;;;;;5118421;23;20650;-91
2023/02/21 21:37:16;;;;;;;230.13;34.93;;;7.10;99.90;;;;;;5068998;23;20153;-91
2023/02/21 21:39:21;;;;;;;115.03;34.47;;;7.10;99.90;;;;;;5093607;23;20235;-92
2023/02/21 21:41:23;;;;;;;234.03;38.43;;;7.20;99.90;;;;;;5094161;23;20164;-92
2023/02/21 21:43:25;;;;;;;123.80;36.13;;;7.30;99.90;;;;;;5093679;23;20155;-91
2023/02/21 21:45:26;;;;;;;128.43;35.60;;;7.40;99.90;;;;;;5093813;23;20152;-91
2023/02/21 21:47:34;;;;;;;313.30;38.73;;;7.30;99.90;;;;;;5093639;23;20215;-93
2023/02/21 21:49:36;;;;;;;402.43;40.60;;;7.30;99.90;;;;;;5118279;23;20172;-91
2023/02/21 21:51:36;;;;;;;479.67;40.57;;;7.30;99.90;;;;;;5069578;23;20158;-91
2023/02/21 21:53:38;;;;;;;411.27;39.57;;;7.30;99.90;;;;;;5069447;23;20150;-91
2023/02/21 21:55:39;;;;;;;343.87;37.60;;;7.20;99.90;;;;;;5093496;23;20191;-91
2023/02/21 21:57:40;;;;;;;132.07;32.00;;;7.10;99.90;;;;;;5069417;23;20150;-91
2023/02/21 21:59:42;;;;;;;207.00;37.30;;;6.70;99.90;;;;;;5093405;23;20208;-91
2023/02/21 22:01:43;;;;;;;160.97;36.07;;;6.70;99.90;;;;;;5093638;23;20157;-91
2023/02/21 22:03:43;;;;;;;185.57;37.37;;;6.80;99.90;;;;;;5069197;23;20277;-92
2023/02/21 22:05:45;;;;;;;192.70;38.50;;;6.90;99.90;;;;;;5093396;23;20216;-91
2023/02/21 22:07:46;;;;;;;289.37;37.17;;;6.90;99.90;;;;;;5069196;23;20566;-92
2023/02/21 22:09:47;;;;;;;324.07;39.27;;;7.00;99.90;;;;;;5069202;23;20173;-95
2023/02/21 22:11:48;;;;;;;238.03;36.17;;;6.90;99.90;;;;;;5069290;23;20537;-91
2023/02/21 22:13:49;;;;;;;443.10;42.17;;;6.90;99.90;;;;;;5069215;23;20679;-91
2023/02/21 22:15:51;;;;;;;524.57;43.17;;;7.00;99.90;;;;;;5069398;23;20189;-91
2023/02/21 22:17:53;;;;;;;690.53;44.93;;;7.40;99.90;;;;;;5069064;23;20565;-94
2023/02/21 22:19:54;;;;;;;623.20;41.13;;;7.70;99.90;;;;;;5069361;23;20177;-91
2023/02/21 22:21:55;;;;;;;692.23;42.30;;;7.80;99.90;;;;;;5069349;23;20185;-92
2023/02/21 22:23:57;;;;;;;653.40;40.07;;;7.70;99.90;;;;;;5093410;23;20152;-91
2023/02/21 22:25:58;;;;;;;572.90;39.13;;;7.30;99.90;;;;;;5093560;23;20153;-92
2023/02/21 22:28:11;;;;;;;583.93;38.90;;;6.90;99.90;;;;;;5093520;23;20160;-93
2023/02/21 22:30:16;;;;;;;528.37;38.67;;;6.80;99.90;;;;;;5118149;23;20168;-92
2023/02/21 22:32:16;;;;;;;507.97;39.27;;;6.90;99.90;;;;;;5093642;23;20481;-91
2023/02/21 22:34:24;;;;;;;530.87;40.73;;;6.90;99.90;;;;;;5118203;23;20152;-92
2023/02/21 22:36:25;;;;;;;540.30;41.60;;;7.10;99.90;;;;;;5118170;23;20195;-91
2023/02/21 22:38:26;;;;;;;470.37;42.47;;;7.50;99.90;;;;;;5093713;23;20575;-91
2023/02/21 22:40:28;;;;;;;500.20;42.87;;;7.60;99.90;;;;;;5093727;23;20177;-91
2023/02/21 22:42:29;;;;;;;632.60;44.27;;;7.60;99.90;;;;;;5093851;23;20232;-90
2023/02/21 22:44:30;;;;;;;518.50;40.40;;;7.60;99.90;;;;;;5118183;23;20603;-92
2023/02/21 22:46:39;;;;;;;702.60;41.07;;;7.60;99.90;;;;;;5069219;23;20150;-91
2023/02/21 22:48:41;;;;;;;663.50;39.63;;;7.40;99.90;;;;;;5118266;23;20151;-91
2023/02/21 22:50:46;;;;;;;545.07;33.80;;;7.10;99.90;;;;;;5095126;23;20199;-90
2023/02/21 22:52:55;;;;;;;504.07;33.50;;;7.20;99.90;;;;;;5095016;23;20157;-91
2023/02/21 22:54:56;;;;;;;576.17;34.20;;;7.10;99.90;;;;;;5094924;23;20551;-91
2023/02/21 22:57:00;;;;;;;551.97;34.53;;;6.80;99.90;;;;;;5070626;23;20189;-91
2023/02/21 22:59:06;;;;;;;681.20;40.50;;;6.90;99.90;;;;;;5119579;23;20611;-91
2023/02/21 23:01:07;;;;;;;677.03;40.63;;;7.00;99.90;;;;;;5094746;23;20159;-90
2023/02/21 23:03:14;;;;;;;724.20;42.97;;;6.90;99.90;;;;;;5095265;23;20239;-94
2023/02/21 23:05:18;;;;;;;671.30;41.27;;;6.90;99.90;;;;;;5070709;23;20161;-91
2023/02/21 23:07:23;;;;;;;705.53;39.13;;;6.70;99.90;;;;;;5070589;23;20153;-91
2023/02/21 23:09:26;;;;;;;620.43;36.37;;;6.80;99.90;;;;;;5070528;23;20226;-92
2023/02/21 23:11:30;;;;;;;345.00;29.07;;;6.80;99.90;;;;;;5070690;23;20253;-92
2023/02/21 23:13:30;;;;;;;714.83;39.23;;;6.50;99.90;;;;;;5095388;23;20157;-91
2023/02/21 23:15:31;;;;;;;720.53;37.07;;;6.30;99.90;;;;;;5070094;23;20185;-91
2023/02/21 23:17:32;;;;;;;734.77;38.07;;;6.50;99.90;;;;;;5070450;23;20197;-91
2023/02/21 23:19:33;;;;;;;706.77;35.43;;;6.60;99.90;;;;;;5070458;23;20181;-91
2023/02/21 23:21:35;;;;;;;684.07;35.73;;;6.70;99.90;;;;;;5094881;23;20158;-91
2023/02/21 23:23:36;;;;;;;519.03;33.80;;;6.70;99.90;;;;;;5094962;23;20243;-91
2023/02/21 23:25:36;;;;;;;472.93;29.57;;;6.80;99.90;;;;;;5095261;23;20180;-91
2023/02/21 23:27:37;;;;;;;557.53;31.47;;;6.80;99.90;;;;;;5094834;23;20149;-91
2023/02/21 23:29:38;;;;;;;524.43;32.20;;;6.80;99.90;;;;;;5119142;23;20168;-91
2023/02/21 23:31:41;;;;;;;426.80;29.10;;;6.70;99.90;;;;;;5070504;23;20153;-91
2023/02/21 23:33:42;;;;;;;319.20;25.93;;;6.70;99.90;;;;;;5094796;23;20157;-91
2023/02/21 23:35:45;;;;;;;256.17;25.70;;;6.40;99.90;;;;;;5094786;23;20216;-91
2023/02/21 23:37:47;;;;;;;196.37;24.83;;;6.00;99.90;;;;;;5094698;23;20163;-92
2023/02/21 23:39:48;;;;;;;496.87;31.47;;;5.70;99.90;;;;;;5070293;23;20185;-90
2023/02/21 23:41:49;;;;;;;415.90;27.60;;;5.80;99.90;;;;;;5094583;23;20157;-92
2023/02/21 23:43:50;;;;;;;364.50;28.33;;;6.30;99.90;;;;;;5095158;23;20484;-91
2023/02/21 23:45:52;;;;;;;299.23;28.90;;;6.80;99.90;;;;;;5070416;23;20154;-91
2023/02/21 23:47:54;;;;;;;339.70;30.87;;;7.00;99.90;;;;;;5094719;23;20516;-90
2023/02/21 23:49:56;;;;;;;329.63;31.27;;;6.90;99.90;;;;;;5094369;23;20268;-91
2023/02/21 23:52:00;;;;;;;338.33;32.50;;;6.80;99.90;;;;;;5094879;23;20149;-90
2023/02/21 23:54:00;;;;;;;267.40;29.70;;;6.60;99.90;;;;;;5094651;23;20172;-91
2023/02/21 23:56:01;;;;;;;263.17;30.23;;;6.40;99.90;;;;;;5094735;23;20524;-90
2023/02/21 23:58:07;;;;;;;247.70;30.40;;;6.20;99.90;;;;;;5095125;23;20152;-91
